sensor_id;sensor_type;location;lat;lon;timestamp;P1;durP1;ratioP1;P2;durP2;ratioP2
9720;SDS011;4899;42.644;23.366;2022-10-17T11:21:31;3.30;;;2.53;;
9720;SDS011;4899;42.644;23.366;2022-10-17T11:24:06;3.47;;;2.57;;
9720;SDS011;4899;42.644;23.366;2022-10-17T11:26:41;4.43;;;2.60;;
9720;SDS011;4899;42.644;23.366;2022-10-17T11:29:11;2.80;;;2.60;;
9720;SDS011;4899;42.644;23.366;2022-10-17T11:31:40;3.53;;;2.90;;
9720;SDS011;4899;42.644;23.366;2022-10-17T11:34:14;3.20;;;2.63;;
9720;SDS011;4899;42.644;23.366;2022-10-17T11:36:46;4.07;;;2.78;;
9720;SDS011;4899;42.644;23.366;2022-10-17T11:39:17;2.67;;;2.47;;
9720;SDS011;4899;42.644;23.366;2022-10-17T11:41:46;3.20;;;2.90;;
9720;SDS011;4899;42.644;23.366;2022-10-17T11:44:19;5.90;;;2.50;;
9720;SDS011;4899;42.644;23.366;2022-10-17T11:46:51;3.53;;;2.80;;
9720;SDS011;4899;42.644;23.366;2022-10-17T11:49:23;3.95;;;2.80;;
9720;SDS011;4899;42.644;23.366;2022-10-17T11:51:59;3.05;;;2.80;;
9720;SDS011;4899;42.644;23.366;2022-10-17T11:54:36;3.92;;;2.50;;
9720;SDS011;4899;42.644;23.366;2022-10-17T11:57:09;4.00;;;2.47;;
9720;SDS011;4899;42.644;23.366;2022-10-17T11:59:54;3.63;;;2.92;;
9720;SDS011;4899;42.644;23.366;2022-10-17T12:02:29;4.03;;;2.90;;
9720;SDS011;4899;42.644;23.366;2022-10-17T12:05:15;3.25;;;2.95;;
9720;SDS011;4899;42.644;23.366;2022-10-17T12:07:49;4.55;;;3.30;;
9720;SDS011;4899;42.644;23.366;2022-10-17T12:10:28;4.55;;;2.55;;
9720;SDS011;4899;42.644;23.366;2022-10-17T12:22:04;3.78;;;2.70;;
9720;SDS011;4899;42.644;23.366;2022-10-17T12:24:44;4.35;;;2.85;;
9720;SDS011;4899;42.644;23.366;2022-10-17T12:27:31;5.57;;;2.95;;
9720;SDS011;4899;42.644;23.366;2022-10-17T12:30:02;2.90;;;2.70;;
9720;SDS011;4899;42.644;23.366;2022-10-17T12:32:32;3.40;;;2.75;;
9720;SDS011;4899;42.644;23.366;2022-10-17T12:34:59;4.25;;;2.45;;
9720;SDS011;4899;42.644;23.366;2022-10-17T12:52:16;2.90;;;2.58;;
9720;SDS011;4899;42.644;23.366;2022-10-17T12:54:46;3.30;;;3.00;;
9720;SDS011;4899;42.644;23.366;2022-10-17T12:57:19;5.15;;;3.38;;
9720;SDS011;4899;42.644;23.366;2022-10-17T12:59:50;2.80;;;2.50;;
9720;SDS011;4899;42.644;23.366;2022-10-17T13:02:19;3.67;;;2.83;;
9720;SDS011;4899;42.644;23.366;2022-10-17T13:04:47;3.20;;;2.90;;
9720;SDS011;4899;42.644;23.366;2022-10-17T13:07:18;2.63;;;2.42;;
9720;SDS011;4899;42.644;23.366;2022-10-17T13:09:47;3.20;;;2.47;;
9720;SDS011;4899;42.644;23.366;2022-10-17T13:12:17;2.50;;;2.30;;
9720;SDS011;4899;42.644;23.366;2022-10-17T13:14:49;3.55;;;2.58;;
9720;SDS011;4899;42.644;23.366;2022-10-17T13:17:20;4.00;;;2.75;;
9720;SDS011;4899;42.644;23.366;2022-10-17T13:19:50;2.30;;;2.10;;
9720;SDS011;4899;42.644;23.366;2022-10-17T13:22:18;2.88;;;2.55;;
9720;SDS011;4899;42.644;23.366;2022-10-17T13:24:47;3.55;;;2.40;;
9720;SDS011;4899;42.644;23.366;2022-10-17T13:27:23;2.60;;;2.40;;
9720;SDS011;4899;42.644;23.366;2022-10-17T13:29:54;3.17;;;2.20;;
9720;SDS011;4899;42.644;23.366;2022-10-17T13:32:22;4.88;;;2.55;;
9720;SDS011;4899;42.644;23.366;2022-10-17T13:35:03;2.60;;;2.40;;
9720;SDS011;4899;42.644;23.366;2022-10-17T13:37:32;3.35;;;2.40;;
9720;SDS011;4899;42.644;23.366;2022-10-17T13:40:00;3.40;;;2.00;;
9720;SDS011;4899;42.644;23.366;2022-10-17T13:42:28;2.15;;;2.05;;
9720;SDS011;4899;42.644;23.366;2022-10-17T13:44:58;2.03;;;1.83;;
9720;SDS011;4899;42.644;23.366;2022-10-17T13:47:26;2.15;;;2.05;;
9720;SDS011;4899;42.644;23.366;2022-10-17T13:49:54;3.67;;;1.70;;
9720;SDS011;4899;42.644;23.366;2022-10-17T13:52:23;4.88;;;1.88;;
9720;SDS011;4899;42.644;23.366;2022-10-17T13:54:53;3.42;;;1.90;;
9720;SDS011;4899;42.644;23.366;2022-10-17T13:57:22;2.75;;;1.70;;
9720;SDS011;4899;42.644;23.366;2022-10-17T13:59:51;2.13;;;1.92;;
9720;SDS011;4899;42.644;23.366;2022-10-17T14:02:22;2.13;;;1.77;;
9720;SDS011;4899;42.644;23.366;2022-10-17T14:05:00;3.30;;;2.13;;
9720;SDS011;4899;42.644;23.366;2022-10-17T14:07:30;2.15;;;1.90;;
9720;SDS011;4899;42.644;23.366;2022-10-17T14:10:01;3.25;;;2.13;;
9720;SDS011;4899;42.644;23.366;2022-10-17T14:12:30;2.20;;;2.00;;
9720;SDS011;4899;42.644;23.366;2022-10-17T14:14:58;2.55;;;2.28;;
9720;SDS011;4899;42.644;23.366;2022-10-17T14:17:29;2.72;;;2.25;;
9720;SDS011;4899;42.644;23.366;2022-10-17T14:19:57;2.97;;;2.33;;
9720;SDS011;4899;42.644;23.366;2022-10-17T14:22:28;2.40;;;2.20;;
9720;SDS011;4899;42.644;23.366;2022-10-17T14:24:58;3.67;;;2.85;;
9720;SDS011;4899;42.644;23.366;2022-10-17T14:27:26;2.95;;;2.65;;
9720;SDS011;4899;42.644;23.366;2022-10-17T14:29:56;6.00;;;2.50;;
9720;SDS011;4899;42.644;23.366;2022-10-17T14:32:25;9.13;;;2.92;;
9720;SDS011;4899;42.644;23.366;2022-10-17T14:34:55;2.80;;;2.60;;
9720;SDS011;4899;42.644;23.366;2022-10-17T14:37:28;2.95;;;2.63;;
9720;SDS011;4899;42.644;23.366;2022-10-17T14:39:59;3.03;;;2.80;;
9720;SDS011;4899;42.644;23.366;2022-10-17T14:42:28;3.58;;;3.28;;
9720;SDS011;4899;42.644;23.366;2022-10-17T14:44:56;3.00;;;2.80;;
9720;SDS011;4899;42.644;23.366;2022-10-17T14:47:31;3.72;;;2.78;;
9720;SDS011;4899;42.644;23.366;2022-10-17T14:50:04;6.13;;;3.40;;
9720;SDS011;4899;42.644;23.366;2022-10-17T14:52:33;4.28;;;3.28;;
9720;SDS011;4899;42.644;23.366;2022-10-17T14:55:12;6.80;;;3.28;;
9720;SDS011;4899;42.644;23.366;2022-10-17T14:57:47;4.03;;;3.33;;
9720;SDS011;4899;42.644;23.366;2022-10-17T15:00:14;6.30;;;3.83;;
9720;SDS011;4899;42.644;23.366;2022-10-17T15:02:42;4.90;;;3.33;;
9720;SDS011;4899;42.644;23.366;2022-10-17T15:05:11;8.23;;;3.60;;
9720;SDS011;4899;42.644;23.366;2022-10-17T15:07:38;6.07;;;3.90;;
9720;SDS011;4899;42.644;23.366;2022-10-17T15:10:08;3.97;;;3.27;;
9720;SDS011;4899;42.644;23.366;2022-10-17T15:12:48;5.73;;;3.50;;
9720;SDS011;4899;42.644;23.366;2022-10-17T15:15:15;7.80;;;3.60;;
9720;SDS011;4899;42.644;23.366;2022-10-17T15:17:42;5.80;;;3.70;;
9720;SDS011;4899;42.644;23.366;2022-10-17T15:20:11;3.57;;;3.27;;
9720;SDS011;4899;42.644;23.366;2022-10-17T15:22:42;4.60;;;3.23;;
9720;SDS011;4899;42.644;23.366;2022-10-17T15:25:09;4.67;;;3.30;;
9720;SDS011;4899;42.644;23.366;2022-10-17T15:27:36;5.30;;;3.57;;
9720;SDS011;4899;42.644;23.366;2022-10-17T15:30:03;6.03;;;3.90;;
9720;SDS011;4899;42.644;23.366;2022-10-17T15:32:40;5.27;;;3.73;;
9720;SDS011;4899;42.644;23.366;2022-10-17T15:35:07;7.73;;;3.83;;
9720;SDS011;4899;42.644;23.366;2022-10-17T15:37:36;7.70;;;5.07;;
9720;SDS011;4899;42.644;23.366;2022-10-17T15:40:03;8.53;;;5.80;;
9720;SDS011;4899;42.644;23.366;2022-10-17T15:42:31;12.03;;;5.70;;
9720;SDS011;4899;42.644;23.366;2022-10-17T15:44:58;12.60;;;6.03;;
9720;SDS011;4899;42.644;23.366;2022-10-17T15:47:26;19.13;;;7.17;;
9720;SDS011;4899;42.644;23.366;2022-10-17T15:49:55;17.13;;;7.73;;
9720;SDS011;4899;42.644;23.366;2022-10-17T15:52:23;18.90;;;9.37;;
9720;SDS011;4899;42.644;23.366;2022-10-17T15:54:51;15.73;;;7.27;;
9720;SDS011;4899;42.644;23.366;2022-10-17T15:57:20;22.33;;;9.13;;
9720;SDS011;4899;42.644;23.366;2022-10-17T15:59:50;18.97;;;8.30;;
9720;SDS011;4899;42.644;23.366;2022-10-17T16:02:18;23.63;;;9.73;;
9720;SDS011;4899;42.644;23.366;2022-10-17T16:04:47;17.00;;;9.37;;
9720;SDS011;4899;42.644;23.366;2022-10-17T16:07:15;15.63;;;8.57;;
9720;SDS011;4899;42.644;23.366;2022-10-17T16:09:41;20.67;;;8.77;;
9720;SDS011;4899;42.644;23.366;2022-10-17T16:12:11;11.07;;;7.43;;
9720;SDS011;4899;42.644;23.366;2022-10-17T16:14:41;15.03;;;7.30;;
9720;SDS011;4899;42.644;23.366;2022-10-17T16:17:08;19.10;;;10.90;;
9720;SDS011;4899;42.644;23.366;2022-10-17T16:19:38;17.77;;;11.43;;
9720;SDS011;4899;42.644;23.366;2022-10-17T16:22:04;12.33;;;7.67;;
9720;SDS011;4899;42.644;23.366;2022-10-17T16:24:32;17.37;;;9.87;;
9720;SDS011;4899;42.644;23.366;2022-10-17T16:26:59;18.10;;;10.70;;
9720;SDS011;4899;42.644;23.366;2022-10-17T16:29:27;18.63;;;10.20;;
9720;SDS011;4899;42.644;23.366;2022-10-17T16:31:54;23.30;;;7.97;;
9720;SDS011;4899;42.644;23.366;2022-10-17T16:34:20;13.93;;;6.50;;
9720;SDS011;4899;42.644;23.366;2022-10-17T16:57:30;20.93;;;9.03;;
9720;SDS011;4899;42.644;23.366;2022-10-17T16:59:57;19.73;;;9.50;;
9720;SDS011;4899;42.644;23.366;2022-10-17T17:02:23;20.27;;;8.77;;
9720;SDS011;4899;42.644;23.366;2022-10-17T17:04:50;14.67;;;7.83;;
9720;SDS011;4899;42.644;23.366;2022-10-17T17:07:17;14.27;;;7.73;;
9720;SDS011;4899;42.644;23.366;2022-10-17T17:09:45;14.50;;;7.40;;
9720;SDS011;4899;42.644;23.366;2022-10-17T17:12:13;12.37;;;7.87;;
9720;SDS011;4899;42.644;23.366;2022-10-17T17:14:41;19.03;;;8.37;;
9720;SDS011;4899;42.644;23.366;2022-10-17T17:17:08;13.90;;;8.37;;
9720;SDS011;4899;42.644;23.366;2022-10-17T17:19:35;18.63;;;10.37;;
9720;SDS011;4899;42.644;23.366;2022-10-17T17:22:01;19.50;;;8.70;;
9720;SDS011;4899;42.644;23.366;2022-10-17T17:24:28;25.83;;;9.53;;
9720;SDS011;4899;42.644;23.366;2022-10-17T17:26:55;15.17;;;8.77;;
9720;SDS011;4899;42.644;23.366;2022-10-17T17:29:22;16.33;;;8.07;;
9720;SDS011;4899;42.644;23.366;2022-10-17T17:31:51;18.87;;;9.53;;
9720;SDS011;4899;42.644;23.366;2022-10-17T17:34:18;17.30;;;9.47;;
9720;SDS011;4899;42.644;23.366;2022-10-17T17:36:45;19.20;;;9.43;;
9720;SDS011;4899;42.644;23.366;2022-10-17T17:39:12;16.10;;;10.00;;
9720;SDS011;4899;42.644;23.366;2022-10-17T17:41:40;20.13;;;10.13;;
9720;SDS011;4899;42.644;23.366;2022-10-17T17:44:08;21.50;;;10.00;;
9720;SDS011;4899;42.644;23.366;2022-10-17T17:46:35;24.93;;;10.80;;
9720;SDS011;4899;42.644;23.366;2022-10-17T17:49:04;23.97;;;11.00;;
9720;SDS011;4899;42.644;23.366;2022-10-17T17:51:30;27.47;;;13.30;;
9720;SDS011;4899;42.644;23.366;2022-10-17T17:56:40;20.50;;;10.97;;
9720;SDS011;4899;42.644;23.366;2022-10-17T18:12:08;16.73;;;10.57;;
9720;SDS011;4899;42.644;23.366;2022-10-17T18:14:35;17.00;;;9.40;;
9720;SDS011;4899;42.644;23.366;2022-10-17T18:17:02;14.43;;;7.93;;
9720;SDS011;4899;42.644;23.366;2022-10-17T18:19:32;16.53;;;9.27;;
9720;SDS011;4899;42.644;23.366;2022-10-17T18:21:59;20.90;;;10.37;;
9720;SDS011;4899;42.644;23.366;2022-10-17T18:41:55;15.27;;;8.03;;
9720;SDS011;4899;42.644;23.366;2022-10-17T18:47:00;17.10;;;10.33;;
9720;SDS011;4899;42.644;23.366;2022-10-17T18:49:27;23.53;;;12.60;;
9720;SDS011;4899;42.644;23.366;2022-10-17T18:58:18;13.73;;;10.43;;
9720;SDS011;4899;42.644;23.366;2022-10-17T19:06:50;21.00;;;10.23;;
9720;SDS011;4899;42.644;23.366;2022-10-17T19:09:17;23.67;;;13.23;;
9720;SDS011;4899;42.644;23.366;2022-10-17T19:11:44;21.67;;;13.93;;
9720;SDS011;4899;42.644;23.366;2022-10-17T19:17:54;21.60;;;11.03;;
9720;SDS011;4899;42.644;23.366;2022-10-17T19:20:21;18.77;;;13.37;;
9720;SDS011;4899;42.644;23.366;2022-10-17T19:22:47;21.80;;;14.10;;
9720;SDS011;4899;42.644;23.366;2022-10-17T19:28:23;20.63;;;13.73;;
9720;SDS011;4899;42.644;23.366;2022-10-17T19:30:50;26.37;;;16.27;;
9720;SDS011;4899;42.644;23.366;2022-10-17T19:33:17;28.73;;;17.73;;
9720;SDS011;4899;42.644;23.366;2022-10-17T19:38:05;19.00;;;13.80;;
9720;SDS011;4899;42.644;23.366;2022-10-17T19:43:09;25.57;;;14.63;;
9720;SDS011;4899;42.644;23.366;2022-10-17T19:45:36;31.17;;;18.83;;
9720;SDS011;4899;42.644;23.366;2022-10-17T19:53:05;19.93;;;14.93;;
9720;SDS011;4899;42.644;23.366;2022-10-17T19:57:59;22.97;;;16.43;;
9720;SDS011;4899;42.644;23.366;2022-10-17T20:00:27;28.70;;;19.87;;
9720;SDS011;4899;42.644;23.366;2022-10-17T20:02:53;40.83;;;24.03;;
9720;SDS011;4899;42.644;23.366;2022-10-17T20:12:27;24.63;;;16.50;;
9720;SDS011;4899;42.644;23.366;2022-10-17T20:18:38;30.03;;;17.87;;
9720;SDS011;4899;42.644;23.366;2022-10-17T20:21:06;25.47;;;18.93;;
9720;SDS011;4899;42.644;23.366;2022-10-17T20:23:35;49.30;;;25.33;;
9720;SDS011;4899;42.644;23.366;2022-10-17T20:41:02;16.93;;;8.57;;
9720;SDS011;4899;42.644;23.366;2022-10-17T20:47:24;17.73;;;14.80;;
9720;SDS011;4899;42.644;23.366;2022-10-17T20:51:12;24.10;;;17.50;;
9720;SDS011;4899;42.644;23.366;2022-10-17T20:53:40;38.70;;;26.63;;
9720;SDS011;4899;42.644;23.366;2022-10-17T20:56:08;39.37;;;28.97;;
9720;SDS011;4899;42.644;23.366;2022-10-17T21:01:11;28.03;;;18.87;;
9720;SDS011;4899;42.644;23.366;2022-10-17T21:05:38;31.17;;;22.03;;
9720;SDS011;4899;42.644;23.366;2022-10-17T21:09:53;32.23;;;21.60;;
9720;SDS011;4899;42.644;23.366;2022-10-17T21:17:12;29.37;;;22.33;;
9720;SDS011;4899;42.644;23.366;2022-10-17T21:22:51;26.37;;;19.40;;
9720;SDS011;4899;42.644;23.366;2022-10-17T21:25:18;39.93;;;27.60;;
9720;SDS011;4899;42.644;23.366;2022-10-17T21:30:32;40.17;;;21.67;;
9720;SDS011;4899;42.644;23.366;2022-10-17T21:39:11;22.33;;;17.40;;
9720;SDS011;4899;42.644;23.366;2022-10-17T21:43:56;33.60;;;23.47;;
9720;SDS011;4899;42.644;23.366;2022-10-17T21:52:42;26.63;;;20.30;;
9720;SDS011;4899;42.644;23.366;2022-10-17T21:56:36;28.23;;;23.47;;
9720;SDS011;4899;42.644;23.366;2022-10-17T22:02:11;24.73;;;21.53;;
9720;SDS011;4899;42.644;23.366;2022-10-17T22:06:13;33.70;;;25.20;;
9720;SDS011;4899;42.644;23.366;2022-10-17T22:16:39;34.63;;;24.60;;
9720;SDS011;4899;42.644;23.366;2022-10-17T22:19:09;52.57;;;36.00;;
9720;SDS011;4899;42.644;23.366;2022-10-17T22:22:36;44.57;;;32.63;;
9720;SDS011;4899;42.644;23.366;2022-10-17T22:27:29;55.97;;;33.80;;
9720;SDS011;4899;42.644;23.366;2022-10-17T22:35:30;47.63;;;30.03;;
9720;SDS011;4899;42.644;23.366;2022-10-17T22:59:08;55.30;;;38.93;;
9720;SDS011;4899;42.644;23.366;2022-10-17T23:01:35;111.07;;;59.20;;
9720;SDS011;4899;42.644;23.366;2022-10-17T23:06:10;83.13;;;49.63;;
9720;SDS011;4899;42.644;23.366;2022-10-17T23:08:37;127.70;;;68.03;;
9720;SDS011;4899;42.644;23.366;2022-10-17T23:11:04;136.77;;;74.23;;
